Time;durP1;ratioP1;P1;durP2;ratioP2;P2;SDS_P1;SDS_P2;PMS_P1;PMS_P2;Temp;Humidity;BMP_temperature;BMP_pressure;BME280_temperature;BME280_humidity;BME280_pressure;Samples;Min_cycle;Max_cycle;Signal;HPM_P1;HPM_P2
2021/01/30 00:01:05;;;;;;;13.93;3.75;;;0.60;99.90;;;;;;5084631;28;20059;-87
2021/01/30 00:03:31;;;;;;;3.38;2.42;;;0.60;99.90;;;;;;5059969;28;20408;-86
2021/01/30 00:05:57;;;;;;;5.72;2.65;;;0.60;99.90;;;;;;5060214;28;20056;-86
2021/01/30 00:08:23;;;;;;;1.10;1.00;;;0.60;99.90;;;;;;5059317;28;20123;-86
2021/01/30 00:10:48;;;;;;;9.48;3.10;;;0.60;99.90;;;;;;5046651;28;20098;-87
2021/01/30 00:13:15;;;;;;;5.93;2.25;;;0.60;99.90;;;;;;5089721;28;20075;-86
2021/01/30 00:15:41;;;;;;;2.10;1.75;;;0.60;99.90;;;;;;5075313;28;20131;-87
2021/01/30 00:18:07;;;;;;;2.50;1.27;;;0.60;99.90;;;;;;5071069;28;20123;-87
2021/01/30 00:20:36;;;;;;;1.38;0.80;;;0.60;99.90;;;;;;5089579;28;20492;-87
2021/01/30 00:23:04;;;;;;;4.40;2.45;;;0.60;99.90;;;;;;5054447;28;20399;-86
2021/01/30 00:25:32;;;;;;;1.60;1.50;;;0.60;99.90;;;;;;5086657;28;20381;-86
2021/01/30 00:27:58;;;;;;;4.28;3.22;;;0.60;99.90;;;;;;5089202;28;20495;-87
2021/01/30 00:30:26;;;;;;;9.02;3.63;;;0.60;99.90;;;;;;5071696;28;20127;-86
2021/01/30 00:32:52;;;;;;;1.85;1.67;;;0.60;99.90;;;;;;5070747;28;20044;-87
2021/01/30 00:35:24;;;;;;;2.20;1.73;;;0.60;99.90;;;;;;5077897;28;20123;-87
2021/01/30 00:37:50;;;;;;;5.82;3.10;;;0.60;99.90;;;;;;5089077;28;20048;-87
2021/01/30 00:40:17;;;;;;;5.47;2.13;;;0.60;99.90;;;;;;5085456;28;20043;-86
2021/01/30 00:42:43;;;;;;;3.25;2.63;;;0.60;99.90;;;;;;5087124;28;20540;-86
2021/01/30 00:45:11;;;;;;;6.03;3.50;;;0.60;99.90;;;;;;5070788;28;20536;-87
2021/01/30 00:47:37;;;;;;;5.10;2.97;;;0.60;99.90;;;;;;5089490;28;20063;-86
2021/01/30 00:50:04;;;;;;;1.67;1.55;;;0.60;99.90;;;;;;5088294;28;20087;-87
2021/01/30 00:52:30;;;;;;;9.30;1.25;;;0.60;99.90;;;;;;5071187;28;20047;-86
2021/01/30 00:54:56;;;;;;;2.97;2.47;;;0.60;99.90;;;;;;5086708;28;20480;-86
2021/01/30 00:57:21;;;;;;;13.10;3.55;;;0.50;99.90;;;;;;5071392;28;20040;-87
2021/01/30 00:59:48;;;;;;;8.32;3.55;;;0.50;99.90;;;;;;5098519;28;20386;-86
2021/01/30 01:02:14;;;;;;;6.57;3.00;;;0.50;99.90;;;;;;5106305;28;20074;-86
2021/01/30 01:04:43;;;;;;;4.60;2.85;;;0.50;99.90;;;;;;5109520;28;20079;-86
2021/01/30 01:07:09;;;;;;;7.18;3.85;;;0.50;99.90;;;;;;5108586;28;20047;-86
2021/01/30 01:09:35;;;;;;;7.47;3.22;;;0.50;99.90;;;;;;5091619;28;20161;-86
2021/01/30 01:12:01;;;;;;;8.05;3.60;;;0.40;99.90;;;;;;5084675;28;20044;-86
2021/01/30 01:14:27;;;;;;;11.77;2.80;;;0.40;99.90;;;;;;5105010;28;20051;-86
2021/01/30 01:16:53;;;;;;;10.70;2.75;;;0.40;99.90;;;;;;5108692;28;20035;-86
2021/01/30 01:19:20;;;;;;;19.02;3.55;;;0.40;99.90;;;;;;5108844;28;20104;-86
2021/01/30 01:21:53;;;;;;;3.45;1.90;;;0.40;99.90;;;;;;5071250;28;20048;-86
2021/01/30 01:24:21;;;;;;;12.10;4.30;;;0.30;99.90;;;;;;5084269;28;20043;-86
2021/01/30 01:26:48;;;;;;;4.45;3.40;;;0.30;99.90;;;;;;5108967;28;20940;-86
2021/01/30 01:29:17;;;;;;;4.07;1.90;;;0.30;99.90;;;;;;5097605;28;20039;-86
2021/01/30 01:31:47;;;;;;;10.95;5.32;;;0.20;99.90;;;;;;5109195;28;20131;-86
2021/01/30 01:34:13;;;;;;;10.38;4.35;;;0.20;99.90;;;;;;5108886;28;20121;-86
2021/01/30 01:36:39;;;;;;;13.95;6.22;;;0.20;99.90;;;;;;5090884;28;20051;-86
2021/01/30 01:39:05;;;;;;;11.23;6.10;;;0.10;99.90;;;;;;5090567;28;20118;-86
2021/01/30 01:41:31;;;;;;;8.38;4.32;;;0.10;99.90;;;;;;5109133;28;20071;-86
2021/01/30 01:43:57;;;;;;;7.95;2.88;;;0.10;99.90;;;;;;5086102;28;20087;-86
2021/01/30 01:46:28;;;;;;;3.65;2.55;;;0.10;99.90;;;;;;5100848;28;20396;-86
2021/01/30 01:49:01;;;;;;;7.47;3.88;;;0.10;99.90;;;;;;5109216;28;20368;-86
2021/01/30 01:51:38;;;;;;;1.17;1.10;;;0.00;99.90;;;;;;5109292;28;20039;-85
2021/01/30 01:54:08;;;;;;;5.18;2.90;;;0.10;99.90;;;;;;5090259;28;20048;-86
2021/01/30 01:56:36;;;;;;;13.38;4.82;;;0.10;99.90;;;;;;5109129;28;20040;-86
2021/01/30 01:59:07;;;;;;;6.80;3.08;;;0.10;99.90;;;;;;5104464;28;20097;-86
2021/01/30 02:01:35;;;;;;;13.07;5.97;;;0.00;99.90;;;;;;5090699;28;20035;-86
2021/01/30 02:04:04;;;;;;;10.35;4.78;;;0.00;99.90;;;;;;5108299;28;20110;-86
2021/01/30 02:06:30;;;;;;;7.57;4.43;;;0.00;99.90;;;;;;5110935;28;20050;-86
2021/01/30 02:08:56;;;;;;;17.15;7.45;;;0.00;99.90;;;;;;5111699;28;20043;-87
2021/01/30 02:11:21;;;;;;;14.77;4.30;;;0.00;99.90;;;;;;5111890;28;20073;-86
2021/01/30 02:13:54;;;;;;;10.35;4.10;;;0.00;99.90;;;;;;5111991;28;20056;-87
2021/01/30 02:16:44;;;;;;;13.27;5.70;;;0.00;99.90;;;;;;5092703;28;20114;-87
2021/01/30 02:19:34;;;;;;;4.72;3.08;;;-0.10;99.90;;;;;;5111832;28;20036;-86
2021/01/30 02:22:09;;;;;;;11.77;5.95;;;-0.10;99.90;;;;;;5111709;28;20415;-87
2021/01/30 02:25:09;;;;;;;10.70;5.68;;;0.00;99.90;;;;;;5112001;28;20067;-85
2021/01/30 02:27:56;;;;;;;17.30;6.57;;;0.00;99.90;;;;;;5111607;28;20055;-85
2021/01/30 02:30:31;;;;;;;14.82;6.32;;;-0.10;99.90;;;;;;5109877;28;20040;-85
2021/01/30 02:33:08;;;;;;;14.05;6.30;;;-0.10;99.90;;;;;;5111628;28;20070;-87
2021/01/30 02:35:59;;;;;;;13.55;5.75;;;-0.10;99.90;;;;;;5110167;28;20043;-87
2021/01/30 02:38:28;;;;;;;9.80;5.78;;;-0.20;99.90;;;;;;5093059;28;20043;-87
2021/01/30 02:41:06;;;;;;;8.02;5.28;;;-0.20;99.90;;;;;;5112021;28;20070;-88
2021/01/30 02:43:38;;;;;;;12.85;5.47;;;-0.20;99.90;;;;;;5111916;28;20036;-87
2021/01/30 02:46:19;;;;;;;12.98;5.70;;;-0.10;99.90;;;;;;5093285;28;20116;-88
2021/01/30 02:48:50;;;;;;;18.88;6.03;;;-0.20;99.90;;;;;;5111538;28;20437;-87
2021/01/30 02:51:21;;;;;;;9.02;5.55;;;-0.20;99.90;;;;;;5107528;28;20051;-88
2021/01/30 02:53:56;;;;;;;9.55;6.38;;;-0.20;99.90;;;;;;5098632;28;20039;-87
2021/01/30 02:56:23;;;;;;;6.65;4.82;;;-0.20;99.90;;;;;;5111241;28;20124;-87
2021/01/30 02:59:01;;;;;;;9.93;4.68;;;-0.20;99.90;;;;;;5111313;28;20046;-87
2021/01/30 03:01:27;;;;;;;12.02;4.88;;;-0.10;99.90;;;;;;5110869;28;20051;-87
2021/01/30 03:04:00;;;;;;;10.75;3.90;;;-0.20;99.90;;;;;;5111127;28;20054;-87
2021/01/30 03:06:40;;;;;;;9.55;4.47;;;-0.20;99.90;;;;;;5072373;28;20489;-87
2021/01/30 03:09:06;;;;;;;4.53;3.17;;;-0.20;99.90;;;;;;5107467;28;20093;-87
2021/01/30 03:12:05;;;;;;;8.23;4.45;;;-0.10;99.90;;;;;;5099699;28;20059;-87
2021/01/30 03:14:37;;;;;;;10.02;4.22;;;-0.10;99.90;;;;;;5086852;28;20419;-87
2021/01/30 03:17:04;;;;;;;9.35;4.20;;;-0.20;99.90;;;;;;5110647;28;20471;-87
2021/01/30 03:19:32;;;;;;;5.57;4.07;;;-0.20;99.90;;;;;;5092862;28;20035;-86
2021/01/30 03:22:12;;;;;;;4.68;3.65;;;-0.20;99.90;;;;;;5111524;28;20482;-87
2021/01/30 03:24:45;;;;;;;;;;;-0.20;99.90;;;;;;5111682;28;20118;-87
2021/01/30 03:27:32;;;;;;;6.88;2.92;;;-0.20;99.90;;;;;;5109847;28;19973;-87
2021/01/30 03:29:59;;;;;;;9.35;4.63;;;-0.20;99.90;;;;;;5092786;28;20110;-87
2021/01/30 03:32:27;;;;;;;7.60;4.03;;;-0.20;99.90;;;;;;5110162;28;20746;-87
2021/01/30 03:34:55;;;;;;;8.75;3.78;;;-0.20;99.90;;;;;;5092903;28;20035;-88
2021/01/30 03:37:21;;;;;;;9.98;3.72;;;-0.20;99.90;;;;;;5106424;28;20118;-88
2021/01/30 03:39:47;;;;;;;11.48;4.03;;;-0.20;99.90;;;;;;5110787;28;20118;-87
2021/01/30 03:42:14;;;;;;;11.40;4.60;;;-0.20;99.90;;;;;;5110212;28;20055;-87
2021/01/30 03:44:40;;;;;;;18.38;4.97;;;-0.20;99.90;;;;;;5110807;28;20065;-88
2021/01/30 03:47:07;;;;;;;8.98;3.67;;;-0.30;99.90;;;;;;5110456;28;20039;-87
2021/01/30 03:49:33;;;;;;;6.13;3.53;;;-0.30;99.90;;;;;;5110801;28;20047;-87
2021/01/30 03:51:59;;;;;;;5.57;3.63;;;-0.30;99.90;;;;;;5110104;28;20427;-88
2021/01/30 03:54:27;;;;;;;11.30;4.25;;;-0.30;99.90;;;;;;5109894;28;20257;-87
2021/01/30 03:56:53;;;;;;;4.72;3.95;;;-0.30;99.90;;;;;;5092426;28;20542;-88
2021/01/30 03:59:20;;;;;;;11.60;4.05;;;-0.40;99.90;;;;;;5091543;28;20063;-88
2021/01/30 04:01:47;;;;;;;6.68;4.63;;;-0.40;99.90;;;;;;5110618;28;20122;-87
2021/01/30 04:04:13;;;;;;;9.85;4.32;;;-0.40;99.90;;;;;;5109898;28;20043;-88
2021/01/30 04:06:39;;;;;;;6.72;4.43;;;-0.40;99.90;;;;;;5092280;28;20043;-88
2021/01/30 04:09:06;;;;;;;9.50;4.18;;;-0.40;99.90;;;;;;5105130;28;20043;-87
2021/01/30 04:11:33;;;;;;;19.73;4.65;;;-0.50;99.90;;;;;;5098013;28;20043;-87
2021/01/30 04:14:00;;;;;;;8.75;4.07;;;-0.40;99.90;;;;;;5109572;28;20108;-88
2021/01/30 04:16:27;;;;;;;5.90;3.65;;;-0.50;99.90;;;;;;5109493;28;20062;-87
2021/01/30 04:18:53;;;;;;;11.73;4.35;;;-0.50;99.90;;;;;;5110151;28;20050;-88
2021/01/30 04:21:19;;;;;;;9.30;4.03;;;-0.50;99.90;;;;;;5104590;28;20039;-88
2021/01/30 04:23:47;;;;;;;7.35;4.35;;;-0.50;99.90;;;;;;5109868;28;20399;-88
2021/01/30 04:26:14;;;;;;;18.25;5.30;;;-0.50;99.90;;;;;;5108684;28;20043;-88
2021/01/30 04:28:39;;;;;;;6.07;3.40;;;-0.50;99.90;;;;;;5091559;28;20031;-88
2021/01/30 04:31:06;;;;;;;8.50;4.32;;;-0.50;99.90;;;;;;5090681;28;20046;-87
2021/01/30 04:33:32;;;;;;;17.40;4.32;;;-0.50;99.90;;;;;;5091059;28;20855;-87
2021/01/30 04:35:58;;;;;;;11.35;4.75;;;-0.50;99.90;;;;;;5091975;28;20031;-87
2021/01/30 04:38:24;;;;;;;13.75;4.93;;;-0.50;99.90;;;;;;5108919;28;20039;-88
2021/01/30 04:40:59;;;;;;;8.57;4.72;;;-0.40;99.90;;;;;;5109348;28;20096;-88
2021/01/30 04:43:28;;;;;;;10.65;4.35;;;-0.40;99.90;;;;;;5106051;28;20039;-87
2021/01/30 04:46:06;;;;;;;7.60;4.65;;;-0.40;99.90;;;;;;5109988;28;20108;-88
2021/01/30 04:48:59;;;;;;;15.88;4.75;;;-0.40;99.90;;;;;;5108579;28;20075;-87
2021/01/30 04:52:14;;;;;;;6.60;4.55;;;-0.50;99.90;;;;;;5108885;28;20043;-87
2021/01/30 04:54:44;;;;;;;8.13;4.18;;;-0.40;99.90;;;;;;5020337;28;20048;-87
2021/01/30 04:57:36;;;;;;;17.83;5.35;;;-0.40;99.90;;;;;;5080110;28;20059;-88
2021/01/30 05:00:20;;;;;;;7.70;4.63;;;-0.50;99.90;;;;;;5104516;28;20063;-87
2021/01/30 05:02:46;;;;;;;11.07;3.80;;;-0.50;99.90;;;;;;5109428;28;20088;-86
2021/01/30 05:05:14;;;;;;;7.35;5.03;;;-0.50;99.90;;;;;;5108967;28;20048;-88
2021/01/30 05:08:01;;;;;;;11.57;5.10;;;-0.50;99.90;;;;;;5109634;28;20066;-86
2021/01/30 05:10:35;;;;;;;8.10;4.00;;;-0.50;99.90;;;;;;5095510;28;20051;-86
2021/01/30 05:13:01;;;;;;;8.60;5.03;;;-0.50;99.90;;;;;;5106275;28;20051;-86
2021/01/30 05:15:51;;;;;;;15.85;4.97;;;-0.50;99.90;;;;;;5108858;28;20040;-87
2021/01/30 05:18:33;;;;;;;11.33;4.57;;;-0.50;99.90;;;;;;5096462;28;20040;-86
2021/01/30 05:21:15;;;;;;;6.30;3.88;;;-0.50;99.90;;;;;;5090620;28;20384;-86
2021/01/30 05:23:45;;;;;;;9.38;3.67;;;-0.60;99.90;;;;;;5109015;28;20115;-87
2021/01/30 05:26:17;;;;;;;5.13;4.27;;;-0.60;99.90;;;;;;5090948;28;20043;-87
2021/01/30 05:29:02;;;;;;;8.82;4.28;;;-0.60;99.90;;;;;;5109610;28;20297;-87
2021/01/30 05:31:39;;;;;;;8.80;4.47;;;-0.60;99.90;;;;;;5107099;28;20051;-87
2021/01/30 05:34:07;;;;;;;8.88;4.68;;;-0.60;99.90;;;;;;5109597;28;20043;-87
2021/01/30 05:36:47;;;;;;;7.30;4.53;;;-0.70;99.90;;;;;;5108592;28;20068;-86
2021/01/30 05:39:32;;;;;;;12.75;4.78;;;-0.70;99.90;;;;;;5109401;28;20044;-88
2021/01/30 05:42:06;;;;;;;12.35;4.65;;;-0.70;99.90;;;;;;5105809;28;20040;-86
2021/01/30 05:45:10;;;;;;;7.80;5.82;;;-0.70;99.90;;;;;;5112532;28;20044;-87
2021/01/30 05:47:37;;;;;;;8.90;4.40;;;-0.80;99.90;;;;;;5103586;28;20035;-86
2021/01/30 05:50:07;;;;;;;8.07;5.32;;;-0.80;99.90;;;;;;5095017;28;20082;-87
2021/01/30 05:52:35;;;;;;;5.78;4.38;;;-0.80;99.90;;;;;;5111712;28;20044;-86
2021/01/30 05:55:02;;;;;;;17.27;5.20;;;-0.90;99.90;;;;;;5094621;28;20495;-85
2021/01/30 05:57:27;;;;;;;13.05;5.72;;;-0.90;99.90;;;;;;5094363;28;20047;-87
2021/01/30 05:59:59;;;;;;;14.57;4.82;;;-0.90;99.90;;;;;;5099108;28;20518;-86
2021/01/30 06:02:28;;;;;;;8.40;4.93;;;-1.00;99.90;;;;;;5112444;28;20118;-86
2021/01/30 06:04:55;;;;;;;17.07;5.57;;;-1.00;99.90;;;;;;5099557;28;20055;-86
2021/01/30 06:07:32;;;;;;;14.25;5.03;;;-1.00;99.90;;;;;;5099684;28;20047;-86
2021/01/30 06:10:04;;;;;;;11.68;4.97;;;-1.00;99.90;;;;;;5103731;28;20045;-85
2021/01/30 06:12:33;;;;;;;11.10;5.15;;;-1.00;99.90;;;;;;5108370;28;20118;-86
2021/01/30 06:15:22;;;;;;;6.90;4.65;;;-1.00;99.90;;;;;;5110885;28;20043;-85
2021/01/30 06:17:48;;;;;;;7.72;4.53;;;-1.10;99.90;;;;;;5108673;28;20044;-86
2021/01/30 06:20:16;;;;;;;10.55;4.65;;;-1.10;99.90;;;;;;5105742;28;20040;-85
2021/01/30 06:22:43;;;;;;;17.77;5.43;;;-1.10;99.90;;;;;;5112403;28;20055;-86
2021/01/30 06:25:29;;;;;;;11.50;5.03;;;-1.20;99.90;;;;;;5105252;28;20067;-85
2021/01/30 06:28:01;;;;;;;9.45;4.60;;;-1.20;99.90;;;;;;5111045;28;20038;-84
2021/01/30 06:30:40;;;;;;;7.68;5.13;;;-1.20;99.90;;;;;;5112227;28;20054;-84
2021/01/30 06:33:23;;;;;;;16.05;5.05;;;-1.20;99.90;;;;;;5113471;28;20032;-85
2021/01/30 06:35:51;;;;;;;8.32;5.00;;;-1.20;99.90;;;;;;5113583;28;20043;-84
2021/01/30 06:38:25;;;;;;;11.07;4.78;;;-1.20;99.90;;;;;;5112941;28;20028;-85
2021/01/30 06:40:55;;;;;;;19.65;5.20;;;-1.20;99.90;;;;;;5113744;28;20039;-85
2021/01/30 06:43:47;;;;;;;11.82;5.43;;;-1.20;99.90;;;;;;5109364;28;20372;-90
2021/01/30 06:46:16;;;;;;;9.32;5.40;;;-1.30;99.90;;;;;;5100055;28;20181;-86
2021/01/30 06:48:45;;;;;;;9.65;5.07;;;-1.30;99.90;;;;;;5098672;28;20035;-86
2021/01/30 06:51:28;;;;;;;13.38;5.00;;;-1.30;99.90;;;;;;5112811;28;20088;-86
2021/01/30 06:53:55;;;;;;;11.05;5.63;;;-1.30;99.90;;;;;;5100305;28;20036;-86
2021/01/30 06:56:27;;;;;;;10.30;5.35;;;-1.30;99.90;;;;;;5112735;28;20084;-88
2021/01/30 06:59:04;;;;;;;10.73;5.30;;;-1.40;99.90;;;;;;5099420;28;20051;-85
2021/01/30 07:01:45;;;;;;;9.38;4.78;;;-1.40;99.90;;;;;;5104651;28;20036;-86
2021/01/30 07:04:22;;;;;;;12.13;4.63;;;-1.40;99.90;;;;;;5092103;28;20036;-87
2021/01/30 07:07:12;;;;;;;10.68;4.90;;;-1.40;99.90;;;;;;5107772;28;20051;-86
2021/01/30 07:09:56;;;;;;;11.20;6.53;;;-1.50;99.90;;;;;;5108756;28;20036;-86
2021/01/30 07:12:29;;;;;;;8.18;4.75;;;-1.50;99.90;;;;;;5112499;28;20127;-90
2021/01/30 07:15:16;;;;;;;10.07;4.53;;;-1.50;99.90;;;;;;5112099;28;20062;-86
2021/01/30 07:18:01;;;;;;;8.60;4.50;;;-1.50;99.90;;;;;;5112265;28;20035;-86
2021/01/30 07:20:51;;;;;;;10.52;4.65;;;-1.50;99.90;;;;;;5111866;28;20051;-87
2021/01/30 07:23:49;;;;;;;5.63;4.55;;;-1.50;99.90;;;;;;5110921;28;20126;-86
2021/01/30 07:26:34;;;;;;;6.60;4.28;;;-1.50;99.90;;;;;;5105344;28;20756;-86
2021/01/30 07:29:05;;;;;;;9.25;5.22;;;-1.50;99.90;;;;;;5104113;28;20058;-87
2021/01/30 07:31:36;;;;;;;11.25;5.35;;;-1.60;99.90;;;;;;5110329;28;20040;-87
2021/01/30 07:34:08;;;;;;;9.48;5.82;;;-1.60;99.90;;;;;;5112875;27;20123;-86
2021/01/30 07:36:49;;;;;;;12.15;5.05;;;-1.50;99.90;;;;;;5112102;28;20035;-86
2021/01/30 07:39:33;;;;;;;15.07;4.65;;;-1.60;99.90;;;;;;5112318;28;20043;-87
2021/01/30 07:42:10;;;;;;;8.30;4.88;;;-1.60;99.90;;;;;;5091675;28;20095;-88
2021/01/30 07:44:47;;;;;;;11.50;5.63;;;-1.60;99.90;;;;;;5106464;28;20047;-86
2021/01/30 07:47:36;;;;;;;23.58;5.85;;;-1.70;99.90;;;;;;5112618;28;20077;-87
2021/01/30 07:50:07;;;;;;;14.05;5.85;;;-1.70;99.90;;;;;;5059492;28;20048;-87
2021/01/30 07:52:41;;;;;;;18.00;5.65;;;-1.70;99.90;;;;;;5109227;28;20111;-87
2021/01/30 07:55:10;;;;;;;11.88;6.32;;;-1.70;99.90;;;;;;5112240;28;20040;-88
2021/01/30 07:58:17;;;;;;;16.15;5.53;;;-1.60;99.90;;;;;;5110811;28;20050;-88
2021/01/30 08:00:54;;;;;;;15.30;6.55;;;-1.60;99.90;;;;;;5094777;28;20055;-88
2021/01/30 08:03:26;;;;;;;14.10;6.25;;;-1.70;99.90;;;;;;5109162;28;20039;-87
2021/01/30 08:06:20;;;;;;;7.70;6.07;;;-1.70;99.90;;;;;;5106341;28;20047;-87
2021/01/30 08:09:38;;;;;;;13.73;6.57;;;-1.80;99.90;;;;;;5111311;28;20431;-87
2021/01/30 08:12:14;;;;;;;15.07;6.35;;;-1.80;99.90;;;;;;5087509;28;20510;-86
2021/01/30 08:15:08;;;;;;;11.98;6.70;;;-1.80;99.90;;;;;;5109444;28;20052;-87
2021/01/30 08:17:54;;;;;;;11.55;7.03;;;-1.90;99.90;;;;;;5107405;28;20419;-86
2021/01/30 08:20:45;;;;;;;13.40;7.30;;;-1.90;99.90;;;;;;5110498;28;20441;-87
2021/01/30 08:23:36;;;;;;;;;;;-1.90;99.90;;;;;;5105937;28;20032;-87
2021/01/30 08:26:22;;;;;;;21.95;11.70;;;-1.80;99.90;;;;;;5106028;28;19919;-87
2021/01/30 08:28:57;;;;;;;17.65;9.23;;;-1.70;99.90;;;;;;5110141;28;20246;-87
2021/01/30 08:31:54;;;;;;;15.88;7.97;;;-1.60;99.90;;;;;;5110447;28;20035;-87
2021/01/30 08:34:21;;;;;;;12.77;8.15;;;-1.60;99.90;;;;;;5103415;28;20039;-87
2021/01/30 08:36:48;;;;;;;31.40;8.48;;;-1.60;99.90;;;;;;5093823;28;20127;-87
2021/01/30 08:39:22;;;;;;;30.30;9.32;;;-1.60;99.90;;;;;;5105863;28;20054;-86
2021/01/30 08:41:52;;;;;;;27.65;8.50;;;-1.60;99.90;;;;;;5101186;28;20055;-86
2021/01/30 08:44:30;;;;;;;15.02;7.18;;;-1.50;99.90;;;;;;5109649;28;20035;-86
2021/01/30 08:47:19;;;;;;;20.50;7.97;;;-1.50;99.90;;;;;;5102724;28;20048;-86
2021/01/30 08:50:05;;;;;;;14.73;7.18;;;-1.50;99.90;;;;;;5110089;28;20410;-85
2021/01/30 08:52:52;;;;;;;16.08;7.13;;;-1.50;99.90;;;;;;5088992;28;20100;-88
2021/01/30 08:55:23;;;;;;;10.45;6.70;;;-1.40;99.90;;;;;;5105408;28;20094;-86
2021/01/30 08:57:49;;;;;;;16.48;7.68;;;-1.40;99.90;;;;;;5107725;28;20051;-87
2021/01/30 09:00:27;;;;;;;14.48;7.63;;;-1.30;99.90;;;;;;5099487;28;20048;-87
2021/01/30 09:02:55;;;;;;;16.90;7.72;;;-1.30;99.90;;;;;;5080471;28;20035;-86
2021/01/30 09:05:21;;;;;;;15.07;7.53;;;-1.20;99.90;;;;;;5106087;28;20464;-86
2021/01/30 09:07:54;;;;;;;11.05;6.38;;;-1.20;99.90;;;;;;5102215;28;20051;-85
2021/01/30 09:10:34;;;;;;;15.90;7.55;;;-1.10;99.90;;;;;;5087208;28;20044;-85
2021/01/30 09:13:06;;;;;;;11.32;7.00;;;-1.00;99.90;;;;;;5084451;28;20046;-85
2021/01/30 09:15:38;;;;;;;17.08;7.57;;;-1.00;99.90;;;;;;5109249;28;20797;-87
2021/01/30 09:18:36;;;;;;;12.90;7.90;;;-1.00;99.90;;;;;;5107973;28;20040;-87
2021/01/30 09:21:07;;;;;;;13.23;7.07;;;-0.90;99.90;;;;;;5081440;28;20055;-87
2021/01/30 09:24:06;;;;;;;9.60;6.60;;;-0.90;99.90;;;;;;5103201;28;20454;-90
2021/01/30 09:26:35;;;;;;;14.45;6.47;;;-0.80;99.90;;;;;;5109972;28;20044;-90
2021/01/30 09:29:02;;;;;;;9.45;6.00;;;-0.80;99.90;;;;;;5110256;28;20047;-88
2021/01/30 09:31:29;;;;;;;14.55;9.35;;;-0.80;99.90;;;;;;5075249;28;20095;-89
2021/01/30 09:34:16;;;;;;;25.98;9.05;;;-0.70;99.90;;;;;;5063954;28;20480;-88
2021/01/30 09:36:47;;;;;;;13.18;7.07;;;-0.70;99.90;;;;;;5105796;28;20493;-87
2021/01/30 09:39:24;;;;;;;16.75;7.85;;;-0.60;99.90;;;;;;5101066;28;20044;-89
2021/01/30 09:41:50;;;;;;;11.30;6.60;;;-0.60;99.90;;;;;;5104963;28;20035;-88
2021/01/30 09:44:27;;;;;;;14.40;6.95;;;-0.50;99.90;;;;;;5112827;28;20055;-89
2021/01/30 09:46:59;;;;;;;15.13;7.72;;;-0.50;99.90;;;;;;5092214;28;20120;-87
2021/01/30 09:49:33;;;;;;;9.07;6.10;;;-0.50;99.90;;;;;;5085937;28;20080;-88
2021/01/30 09:52:00;;;;;;;13.73;7.00;;;-0.50;99.90;;;;;;5102775;28;20051;-89
2021/01/30 09:54:28;;;;;;;12.27;6.63;;;-0.40;99.90;;;;;;5085618;28;20040;-87
2021/01/30 09:57:04;;;;;;;11.70;7.57;;;-0.40;99.90;;;;;;5085364;28;20043;-88
2021/01/30 09:59:30;;;;;;;15.85;7.28;;;-0.40;99.90;;;;;;5076078;28;20035;-88
2021/01/30 10:02:09;;;;;;;13.32;6.93;;;-0.40;99.90;;;;;;5101998;28;20028;-88
2021/01/30 10:04:35;;;;;;;11.95;7.32;;;-0.30;99.90;;;;;;5104081;28;20036;-91
2021/01/30 10:07:23;;;;;;;10.95;6.85;;;-0.30;99.90;;;;;;5107011;28;20050;-88
2021/01/30 10:09:49;;;;;;;14.63;7.00;;;-0.30;99.90;;;;;;5096739;28;20059;-89
2021/01/30 10:12:18;;;;;;;13.82;7.60;;;-0.20;99.90;;;;;;5074645;28;20044;-88
2021/01/30 10:14:50;;;;;;;12.13;7.50;;;-0.20;99.90;;;;;;5104127;28;20047;-87
2021/01/30 10:17:45;;;;;;;12.57;6.85;;;-0.20;99.90;;;;;;5077018;28;20741;-87
2021/01/30 10:20:16;;;;;;;9.30;6.63;;;-0.20;99.90;;;;;;5070046;28;20055;-89
2021/01/30 10:22:45;;;;;;;12.02;7.00;;;-0.10;99.90;;;;;;5103841;28;20123;-87
2021/01/30 10:25:18;;;;;;;12.55;6.93;;;-0.10;99.90;;;;;;5079046;28;20054;-89
2021/01/30 10:27:44;;;;;;;9.93;6.35;;;-0.10;99.90;;;;;;5095665;28;20040;-87
2021/01/30 10:30:14;;;;;;;9.85;5.65;;;-0.10;99.90;;;;;;5077943;28;20111;-91
2021/01/30 10:32:50;;;;;;;13.27;6.65;;;-0.10;99.90;;;;;;5100342;28;20391;-89
2021/01/30 10:35:34;;;;;;;10.98;6.82;;;0.00;99.90;;;;;;5102924;28;20047;-88
2021/01/30 10:38:08;;;;;;;12.48;6.53;;;0.00;99.90;;;;;;5096507;28;20240;-89
2021/01/30 10:40:40;;;;;;;10.32;5.68;;;0.10;99.90;;;;;;5110238;28;20545;-87
2021/01/30 10:43:22;;;;;;;16.83;6.60;;;0.10;99.90;;;;;;5091961;28;20471;-87
2021/01/30 10:45:59;;;;;;;9.55;6.50;;;0.10;99.90;;;;;;5111353;28;20399;-87
2021/01/30 10:48:29;;;;;;;9.13;5.82;;;0.10;99.90;;;;;;5098851;28;20075;-87
2021/01/30 10:51:10;;;;;;;9.63;5.68;;;0.20;99.90;;;;;;5112292;28;20071;-87
2021/01/30 10:53:38;;;;;;;10.38;5.57;;;0.20;99.90;;;;;;5112946;28;20035;-89
2021/01/30 10:56:24;;;;;;;8.15;6.03;;;0.30;99.90;;;;;;5094552;28;20043;-87
2021/01/30 10:58:51;;;;;;;18.33;5.43;;;0.30;99.90;;;;;;5087176;28;20055;-88
2021/01/30 11:01:17;;;;;;;13.63;6.07;;;0.40;99.90;;;;;;5089782;28;20384;-88
2021/01/30 11:03:58;;;;;;;12.80;6.43;;;0.40;99.90;;;;;;5091419;28;20036;-91
2021/01/30 11:06:41;;;;;;;10.02;5.78;;;0.50;99.90;;;;;;5080373;28;20079;-89
2021/01/30 11:09:15;;;;;;;7.47;5.70;;;0.50;99.90;;;;;;5075845;28;20479;-86
2021/01/30 11:11:42;;;;;;;11.35;5.90;;;0.50;99.90;;;;;;5072616;28;20119;-89
2021/01/30 11:14:27;;;;;;;10.82;5.85;;;0.60;99.90;;;;;;5089484;28;20837;-86
2021/01/30 11:16:57;;;;;;;9.73;5.88;;;0.60;99.90;;;;;;5065971;28;20048;-89
2021/01/30 11:19:31;;;;;;;8.18;5.70;;;0.60;99.90;;;;;;5088630;28;20128;-88
2021/01/30 11:22:18;;;;;;;10.88;5.72;;;0.70;99.90;;;;;;5071301;28;20044;-86
2021/01/30 11:25:11;;;;;;;9.35;4.75;;;0.70;99.90;;;;;;5063200;28;20173;-90
2021/01/30 11:27:45;;;;;;;7.93;5.32;;;0.70;99.90;;;;;;5071948;28;20052;-89
2021/01/30 11:30:11;;;;;;;10.13;5.85;;;0.80;99.90;;;;;;5071172;28;20491;-89
2021/01/30 11:32:37;;;;;;;7.38;5.90;;;0.90;99.90;;;;;;5087275;28;20032;-87
2021/01/30 11:35:04;;;;;;;7.45;5.32;;;0.90;99.90;;;;;;5090064;28;20040;-87
2021/01/30 11:37:31;;;;;;;9.32;5.43;;;0.90;99.90;;;;;;5088934;28;20411;-87
2021/01/30 11:40:05;;;;;;;8.23;5.43;;;1.00;99.90;;;;;;5055086;28;20391;-88
2021/01/30 11:42:30;;;;;;;7.65;5.63;;;1.00;99.90;;;;;;5091965;28;20123;-88
2021/01/30 11:44:56;;;;;;;7.88;5.10;;;1.20;99.90;;;;;;5072693;28;20122;-89
2021/01/30 11:47:22;;;;;;;7.20;5.45;;;1.20;99.90;;;;;;5046121;28;20562;-88
2021/01/30 11:49:47;;;;;;;5.45;4.78;;;1.20;99.90;;;;;;5072565;28;20569;-89
2021/01/30 11:52:18;;;;;;;8.93;4.90;;;1.30;99.90;;;;;;5039957;28;20434;-89
2021/01/30 11:54:44;;;;;;;6.22;4.72;;;1.30;99.90;;;;;;5057250;28;20130;-92
2021/01/30 11:57:10;;;;;;;5.70;4.43;;;1.30;99.90;;;;;;5090178;28;20050;-89
2021/01/30 11:59:36;;;;;;;8.15;5.05;;;1.30;99.90;;;;;;5088637;28;20052;-89
2021/01/30 12:02:02;;;;;;;10.18;5.03;;;1.30;99.90;;;;;;5086275;28;20028;-89
2021/01/30 12:04:28;;;;;;;6.30;4.85;;;1.20;99.90;;;;;;5083010;28;20040;-90
2021/01/30 12:06:53;;;;;;;5.70;4.97;;;1.20;99.90;;;;;;5071802;28;20050;-90
2021/01/30 12:09:19;;;;;;;7.80;4.72;;;1.20;99.90;;;;;;5092413;28;20403;-88
2021/01/30 12:11:45;;;;;;;7.38;4.82;;;1.20;99.90;;;;;;5071621;28;20063;-89
2021/01/30 12:14:11;;;;;;;5.90;5.20;;;1.30;99.90;;;;;;5105552;28;20120;-88
2021/01/30 12:16:36;;;;;;;5.20;4.70;;;1.40;99.90;;;;;;5108418;28;20411;-88
2021/01/30 12:19:02;;;;;;;6.55;5.32;;;1.40;99.90;;;;;;5104463;28;20036;-88
2021/01/30 12:21:28;;;;;;;7.85;4.88;;;1.40;99.90;;;;;;5109716;28;20073;-89
2021/01/30 12:23:54;;;;;;;6.60;4.38;;;1.30;99.90;;;;;;5091881;28;20043;-88
2021/01/30 12:26:23;;;;;;;7.50;4.40;;;1.30;99.90;;;;;;5099847;28;20046;-88
2021/01/30 12:28:50;;;;;;;5.53;4.28;;;1.30;99.90;;;;;;5092213;28;20046;-91
2021/01/30 12:31:15;;;;;;;6.78;4.55;;;1.20;99.90;;;;;;5101956;28;20047;-89
2021/01/30 12:33:41;;;;;;;6.57;4.57;;;1.20;99.90;;;;;;5110464;28;20088;-89
2021/01/30 12:36:09;;;;;;;7.68;4.22;;;1.30;99.90;;;;;;5085993;28;20820;-88
2021/01/30 12:38:34;;;;;;;6.45;5.22;;;1.30;99.90;;;;;;5092189;28;20086;-89
2021/01/30 12:41:02;;;;;;;5.68;4.85;;;1.30;99.90;;;;;;5090975;28;20035;-90
2021/01/30 12:43:28;;;;;;;6.68;5.05;;;1.40;99.90;;;;;;5091162;28;20104;-90
2021/01/30 12:45:54;;;;;;;5.32;4.50;;;1.40;99.90;;;;;;5100872;28;20043;-89
2021/01/30 12:48:20;;;;;;;8.63;5.80;;;1.40;99.90;;;;;;5107692;28;20062;-89
2021/01/30 12:50:46;;;;;;;8.90;5.22;;;1.20;99.90;;;;;;5090773;28;20111;-89
2021/01/30 12:53:12;;;;;;;6.13;5.38;;;1.10;99.90;;;;;;5076612;28;20071;-89
2021/01/30 12:55:39;;;;;;;9.25;5.75;;;1.10;99.90;;;;;;5085264;28;20465;-89
2021/01/30 12:58:12;;;;;;;7.85;5.78;;;1.10;99.90;;;;;;5108883;28;20068;-89
2021/01/30 13:00:39;;;;;;;7.32;5.93;;;1.00;99.90;;;;;;5076905;28;20090;-89
2021/01/30 13:03:05;;;;;;;7.93;6.40;;;1.10;99.90;;;;;;5095759;28;20087;-89
2021/01/30 13:05:31;;;;;;;7.43;5.53;;;1.20;99.90;;;;;;5107772;28;20047;-90
2021/01/30 13:07:57;;;;;;;7.75;5.20;;;1.20;99.90;;;;;;5107194;28;20047;-89
2021/01/30 13:10:22;;;;;;;8.40;6.00;;;1.00;99.90;;;;;;5074413;28;20105;-89
2021/01/30 13:12:49;;;;;;;8.23;6.00;;;1.00;99.90;;;;;;5106783;28;20040;-89
2021/01/30 13:15:15;;;;;;;9.43;6.53;;;1.00;99.90;;;;;;5090620;28;20093;-89